createdAt,value
2019-01-04T00:05:32.661Z,11.77
2019-01-04T00:11:36.872Z,12.80
2019-01-04T00:17:41.228Z,12.33
2019-01-04T00:23:45.482Z,10.80
2019-01-04T00:29:49.884Z,10.27
2019-01-04T00:35:54.172Z,10.90
2019-01-04T00:41:58.384Z,13.13
2019-01-04T00:48:02.593Z,11.33
2019-01-04T00:54:06.980Z,11.13
2019-01-04T01:01:10.070Z,10.90
2019-01-04T01:07:52.667Z,12.00
2019-01-04T01:14:36.516Z,13.13
2019-01-04T01:21:16.375Z,12.60
2019-01-04T01:28:10.495Z,12.57
2019-01-04T01:35:02.131Z,13.33
2019-01-04T01:41:42.887Z,10.60
2019-01-04T01:48:08.561Z,9.27
2019-01-04T01:54:12.759Z,13.23
2019-01-04T02:00:17.015Z,11.33
2019-01-04T02:06:21.213Z,11.17
2019-01-04T02:12:25.408Z,10.83
2019-01-04T02:18:29.719Z,10.10
2019-01-04T02:24:33.905Z,9.27
2019-01-04T02:30:38.343Z,10.97
2019-01-04T02:36:42.521Z,9.43
2019-01-04T02:42:46.824Z,10.10
2019-01-04T02:48:51.071Z,11.57
2019-01-04T02:54:55.330Z,12.27
2019-01-04T03:00:59.622Z,9.87
2019-01-04T03:07:04.329Z,10.83
2019-01-04T03:13:08.543Z,9.77
2019-01-04T03:19:12.733Z,11.60
2019-01-04T03:25:16.986Z,10.40
2019-01-04T03:31:21.189Z,9.97
2019-01-04T03:37:25.446Z,12.10
2019-01-04T03:43:29.652Z,11.77
2019-01-04T03:49:33.868Z,10.13
2019-01-04T03:55:38.156Z,13.57
2019-01-04T04:01:42.426Z,11.00
2019-01-04T04:07:46.658Z,12.60
2019-01-04T04:13:50.853Z,14.33
2019-01-04T04:19:55.355Z,11.83
2019-01-04T04:25:59.552Z,12.90
2019-01-04T04:32:03.840Z,15.57
2019-01-04T04:38:08.114Z,14.13
2019-01-04T04:44:12.355Z,15.03
2019-01-04T04:50:16.661Z,13.83
2019-01-04T04:56:20.928Z,11.67
2019-01-04T05:02:25.135Z,9.70
2019-01-04T05:08:29.619Z,7.50
2019-01-04T05:14:33.803Z,8.23
2019-01-04T05:20:38.043Z,10.57
2019-01-04T05:26:42.232Z,10.90
2019-01-04T05:32:49.533Z,7.57
2019-01-04T05:38:53.715Z,19.80
2019-01-04T05:44:58.161Z,10.50
2019-01-04T05:51:02.354Z,9.73
2019-01-04T05:57:06.611Z,11.70
2019-01-04T06:03:10.807Z,8.97
2019-01-04T06:09:15.237Z,10.97
2019-01-04T06:15:19.420Z,13.57
2019-01-04T06:21:23.759Z,12.17
2019-01-04T06:27:27.943Z,12.43
2019-01-04T06:33:32.282Z,13.73
2019-01-04T06:39:36.476Z,13.93
2019-01-04T06:45:40.875Z,17.40
2019-01-04T06:51:45.084Z,17.70
2019-01-04T06:57:49.396Z,22.77
2019-01-04T07:03:53.630Z,19.37
2019-01-04T07:10:00.943Z,18.20
2019-01-04T07:16:05.198Z,19.43
2019-01-04T07:22:09.542Z,18.30
2019-01-04T07:28:13.800Z,17.63
2019-01-04T07:34:18.244Z,15.70
2019-01-04T07:40:22.476Z,16.37
2019-01-04T07:46:26.642Z,14.57
2019-01-04T07:52:30.839Z,17.40
2019-01-04T07:58:35.151Z,13.63
2019-01-04T08:04:39.308Z,15.23
2019-01-04T08:10:43.655Z,13.00
2019-01-04T08:16:47.870Z,13.10
2019-01-04T08:22:52.247Z,15.87
2019-01-04T08:28:56.443Z,17.13
2019-01-04T08:35:00.850Z,17.60
2019-01-04T08:41:05.023Z,23.03
2019-01-04T08:47:09.315Z,17.40
2019-01-04T08:53:13.515Z,16.67
2019-01-04T08:59:17.941Z,17.57
2019-01-04T09:05:22.173Z,16.43
2019-01-04T09:11:26.392Z,18.17
2019-01-04T09:17:30.579Z,21.07
2019-01-04T09:23:34.963Z,21.50
2019-01-04T09:29:39.143Z,23.23
2019-01-04T09:35:43.594Z,25.10
2019-01-04T09:42:13.768Z,25.17
2019-01-04T09:48:17.957Z,26.40
2019-01-04T09:54:22.184Z,26.70
2019-01-04T10:00:26.564Z,24.53
2019-01-04T10:06:30.802Z,26.50
2019-01-04T10:12:34.992Z,24.20
2019-01-04T10:18:39.295Z,27.60
2019-01-04T10:24:43.490Z,30.50
2019-01-04T10:30:47.911Z,44.40
2019-01-04T10:36:52.160Z,32.40
2019-01-04T10:42:56.434Z,33.53
2019-01-04T10:49:00.612Z,33.87
2019-01-04T10:55:05.290Z,32.33
2019-01-04T11:01:09.480Z,30.93
2019-01-04T11:07:13.662Z,33.80
2019-01-04T11:13:17.953Z,33.50
2019-01-04T11:19:22.149Z,34.53
2019-01-04T11:26:12.192Z,30.90
2019-01-04T11:32:51.208Z,25.73
2019-01-04T11:39:35.444Z,26.33
2019-01-04T11:46:05.108Z,29.07
2019-01-04T11:52:39.159Z,27.93
2019-01-04T11:58:43.367Z,34.67
2019-01-04T12:04:47.559Z,31.47
2019-01-04T12:10:51.804Z,30.37
2019-01-04T12:16:56.029Z,32.53
2019-01-04T12:23:00.327Z,34.20
2019-01-04T12:29:04.540Z,31.43
2019-01-04T12:35:09.007Z,29.63
2019-01-04T12:41:13.180Z,44.60
2019-01-04T12:47:17.526Z,22.33
2019-01-04T12:53:21.761Z,26.70
2019-01-04T12:59:26.097Z,24.33
2019-01-04T13:05:30.290Z,22.57
2019-01-04T13:11:34.663Z,23.00
2019-01-04T13:17:38.825Z,25.40
2019-01-04T13:23:43.081Z,25.33
2019-01-04T13:29:47.266Z,28.17
2019-01-04T13:35:51.727Z,25.67
2019-01-04T13:41:55.923Z,33.13
2019-01-04T13:48:00.235Z,31.97
2019-01-04T13:54:04.726Z,31.47
2019-01-04T14:00:09.788Z,32.53
2019-01-04T14:06:13.985Z,24.33
2019-01-04T14:12:18.452Z,29.50
2019-01-04T14:18:22.640Z,36.30
2019-01-04T14:24:27.070Z,29.30
2019-01-04T14:30:32.064Z,28.37
2019-01-04T14:36:37.632Z,30.47
2019-01-04T14:42:41.842Z,30.83
2019-01-04T14:48:46.093Z,26.03
2019-01-04T14:54:50.272Z,23.77
2019-01-04T15:00:54.518Z,26.50
2019-01-04T15:06:58.742Z,24.50
2019-01-04T15:13:03.062Z,24.90
2019-01-04T15:19:07.259Z,23.63
2019-01-04T15:25:11.587Z,20.13
2019-01-04T15:31:15.758Z,21.33
2019-01-04T15:37:20.462Z,23.03
2019-01-04T15:43:24.657Z,22.73
2019-01-04T15:49:28.959Z,21.50
2019-01-04T15:55:33.133Z,23.97
2019-01-04T16:01:37.417Z,27.53
2019-01-04T16:07:41.625Z,26.53
2019-01-04T16:13:45.859Z,25.17
2019-01-04T16:19:50.027Z,19.70
2019-01-04T16:25:54.391Z,21.73
2019-01-04T16:31:58.595Z,24.20
2019-01-04T16:38:02.902Z,25.93
2019-01-04T16:44:07.332Z,22.73
2019-01-04T16:50:11.649Z,25.33
2019-01-04T16:56:15.962Z,29.80
2019-01-04T17:02:20.172Z,28.07
2019-01-04T17:08:24.379Z,27.70
2019-01-04T17:14:28.613Z,26.60
2019-01-04T17:20:32.875Z,26.70
2019-01-04T17:26:37.209Z,27.83
2019-01-04T17:32:41.403Z,25.97
2019-01-04T17:38:45.662Z,30.03
2019-01-04T17:44:49.830Z,28.47
2019-01-04T17:50:54.003Z,28.97
2019-01-04T17:56:58.256Z,25.57
2019-01-04T18:03:02.457Z,25.47
2019-01-04T18:09:08.145Z,29.10
2019-01-04T18:15:12.351Z,26.97
2019-01-04T18:21:16.542Z,24.60
2019-01-04T18:27:20.856Z,25.53
2019-01-04T18:33:25.101Z,24.70
2019-01-04T18:39:29.398Z,24.67
2019-01-04T18:45:33.697Z,33.27
2019-01-04T18:51:37.900Z,29.77
2019-01-04T18:57:42.074Z,31.83
2019-01-04T19:03:46.274Z,24.77
2019-01-04T19:09:50.461Z,28.33
2019-01-04T19:15:54.788Z,25.33
2019-01-04T19:21:59.008Z,29.73
2019-01-04T19:28:03.191Z,28.53
2019-01-04T19:34:07.528Z,27.77
2019-01-04T19:40:11.765Z,27.17
2019-01-04T19:46:16.026Z,30.67
2019-01-04T19:52:20.202Z,32.67
2019-01-04T19:58:24.606Z,34.50
2019-01-04T20:04:28.838Z,33.60
2019-01-04T20:11:29.653Z,37.00
2019-01-04T20:18:05.239Z,32.93
2019-01-04T20:24:24.013Z,33.13
2019-01-04T20:31:05.433Z,29.47
2019-01-04T20:37:27.057Z,30.30
2019-01-04T20:44:05.201Z,29.07
2019-01-04T20:50:27.076Z,27.20
2019-01-04T20:56:57.566Z,26.47
2019-01-04T21:03:35.963Z,27.97
2019-01-04T21:10:01.768Z,24.20
2019-01-04T21:16:25.016Z,27.33
2019-01-04T21:22:40.751Z,26.93
2019-01-04T21:29:10.834Z,23.77
2019-01-04T21:35:42.864Z,28.00
2019-01-04T21:42:04.744Z,24.67
2019-01-04T21:48:38.577Z,24.67
2019-01-04T21:55:00.576Z,24.17
2019-01-04T22:01:22.200Z,26.97
2019-01-04T22:07:48.662Z,27.17
2019-01-04T22:14:10.273Z,31.60
2019-01-04T22:20:37.730Z,27.97
2019-01-04T22:27:03.816Z,27.87
2019-01-04T22:33:25.471Z,29.30
2019-01-04T22:39:48.718Z,27.00
2019-01-04T22:46:11.942Z,29.70
2019-01-04T22:52:24.300Z,29.33
2019-01-04T22:58:47.517Z,30.23
2019-01-04T23:05:25.853Z,27.37
2019-01-04T23:11:50.603Z,28.90
2019-01-04T23:18:13.839Z,29.87
2019-01-04T23:24:42.873Z,27.50
2019-01-04T23:31:10.837Z,28.57
2019-01-04T23:37:37.187Z,27.27
2019-01-04T23:44:09.270Z,27.30
2019-01-04T23:50:31.204Z,28.27
2019-01-04T23:56:52.898Z,30.33
